createdAt,value
2019-05-12T00:00:07.895Z,95.1660
2019-05-12T00:00:18.251Z,95.1660
2019-05-12T00:00:28.593Z,95.1660
2019-05-12T00:00:35.634Z,95.0623
2019-05-12T00:00:48.352Z,94.9585
2019-05-12T00:00:58.425Z,94.9585
2019-05-12T00:01:08.632Z,95.0623
2019-05-12T00:01:18.695Z,95.1660
2019-05-12T00:01:28.497Z,95.0623
2019-05-12T00:01:36.271Z,94.9585
2019-05-12T00:01:48.098Z,94.9585
2019-05-12T00:01:55.749Z,95.0623
2019-05-12T00:02:07.595Z,95.0623
2019-05-12T00:02:17.854Z,94.9585
2019-05-12T00:02:25.471Z,94.9585
2019-05-12T00:02:35.759Z,95.0623
2019-05-12T00:02:48.453Z,95.0623
2019-05-12T00:02:59.096Z,95.2698
2019-05-12T00:03:08.564Z,95.1660
2019-05-12T00:03:18.853Z,95.0623
2019-05-12T00:03:27.649Z,94.8547
2019-05-12T00:03:47.981Z,94.7571
2019-05-12T00:03:58.107Z,94.7571
2019-05-12T00:04:08.091Z,94.7571
2019-05-12T00:04:16.030Z,94.8547
2019-05-12T00:04:28.054Z,94.8547
2019-05-12T00:04:35.647Z,94.7571
2019-05-12T00:04:48.830Z,94.7571
2019-05-12T00:04:58.256Z,94.8547
2019-05-12T00:05:05.839Z,94.8547
2019-05-12T00:05:18.518Z,94.8547
2019-05-12T00:05:27.985Z,94.8547
2019-05-12T00:05:35.636Z,94.9585
2019-05-12T00:05:48.307Z,95.0623
2019-05-12T00:05:57.784Z,95.1660
2019-05-12T00:06:05.438Z,95.1660
2019-05-12T00:06:17.679Z,95.0623
2019-05-12T00:06:28.465Z,94.9585
2019-05-12T00:06:38.756Z,94.8547
2019-05-12T00:06:47.852Z,94.8547
2019-05-12T00:06:58.378Z,94.7571
2019-05-12T00:07:08.556Z,94.7571
2019-05-12T00:07:18.050Z,94.8547
2019-05-12T00:07:25.716Z,94.8547
2019-05-12T00:07:37.940Z,94.8547
2019-05-12T00:07:48.384Z,94.7571
2019-05-12T00:07:58.943Z,94.8547
2019-05-12T00:08:08.302Z,94.8547
2019-05-12T00:08:18.697Z,94.8547
2019-05-12T00:08:27.752Z,94.7571
2019-05-12T00:08:38.140Z,94.7571
2019-05-12T00:08:45.784Z,94.8547
2019-05-12T00:08:57.844Z,94.8547
2019-05-12T00:09:05.524Z,94.8547
2019-05-12T00:09:18.636Z,94.9585
2019-05-12T00:09:28.267Z,94.9585
2019-05-12T00:09:38.677Z,95.0623
2019-05-12T00:09:47.961Z,95.0623
2019-05-12T00:09:58.126Z,95.1660
2019-05-12T00:10:05.711Z,95.1660
2019-05-12T00:10:17.787Z,95.1660
2019-05-12T00:10:25.530Z,95.1660
2019-05-12T00:10:38.521Z,95.0623
2019-05-12T00:10:47.858Z,94.9585
2019-05-12T00:10:55.441Z,94.9585
2019-05-12T00:11:08.940Z,94.9585
2019-05-12T00:11:17.958Z,94.9585
2019-05-12T00:11:25.580Z,94.9585
2019-05-12T00:11:37.874Z,94.9585
2019-05-12T00:11:45.570Z,94.9585
2019-05-12T00:11:59.053Z,94.9585
2019-05-12T00:12:08.249Z,94.9585
2019-05-12T00:12:15.847Z,94.9585
2019-05-12T00:12:27.645Z,94.9585
2019-05-12T00:12:35.363Z,95.0623
2019-05-12T00:12:48.284Z,94.9585
2019-05-12T00:12:58.179Z,94.9585
2019-05-12T00:13:08.156Z,94.8547
2019-05-12T00:13:15.971Z,94.9585
2019-05-12T00:13:27.844Z,94.9585
2019-05-12T00:13:35.597Z,94.9585
2019-05-12T00:13:47.903Z,95.0623
2019-05-12T00:13:58.617Z,95.1660
2019-05-12T00:14:08.567Z,95.2698
2019-05-12T00:14:17.847Z,95.2698
2019-05-12T00:14:25.499Z,95.3735
2019-05-12T00:15:05.230Z,95.2698
2019-05-12T00:15:28.808Z,94.9585
2019-05-12T00:15:31.975Z,95.0623
2019-05-12T00:15:38.522Z,95.0623
2019-05-12T00:15:47.627Z,95.1660
2019-05-12T00:15:58.311Z,95.1660
2019-05-12T00:16:08.610Z,95.1660
2019-05-12T00:16:17.694Z,95.2698
2019-05-12T00:16:28.337Z,95.2698
2019-05-12T00:16:38.344Z,95.3735
2019-05-12T00:16:48.938Z,95.4773
2019-05-12T00:16:58.010Z,95.4773
2019-05-12T00:17:08.094Z,95.5811
2019-05-12T00:17:15.777Z,95.5811
2019-05-12T00:17:28.325Z,95.6787
2019-05-12T00:17:35.998Z,95.5811
2019-05-12T00:17:48.074Z,95.3735
2019-05-12T00:17:58.399Z,95.3735
2019-05-12T00:18:09.114Z,95.2698
2019-05-12T00:18:18.073Z,95.1660
2019-05-12T00:18:25.756Z,95.0623
2019-05-12T00:18:37.626Z,95.1660
2019-05-12T00:18:45.392Z,95.1660
2019-05-12T00:18:58.615Z,95.2698
2019-05-12T00:19:06.310Z,95.2698
2019-05-12T00:19:17.922Z,95.2698
2019-05-12T00:19:25.687Z,95.2698
2019-05-12T00:19:37.654Z,95.2698
2019-05-12T00:19:48.000Z,95.3735
2019-05-12T00:19:58.350Z,95.4773
2019-05-12T00:20:08.337Z,95.4773
2019-05-12T00:20:18.076Z,95.5811
2019-05-12T00:20:28.154Z,95.5811
2019-05-12T00:20:35.995Z,95.5811
2019-05-12T00:20:47.668Z,95.7275
2019-05-12T00:20:57.970Z,95.6787
2019-05-12T00:21:05.565Z,95.7275
2019-05-12T00:21:28.279Z,95.7275
2019-05-12T00:21:39.213Z,95.7275
2019-05-12T00:21:48.284Z,95.8313
2019-05-12T00:21:56.019Z,95.8313
2019-05-12T00:22:07.656Z,95.9290
2019-05-12T00:22:28.540Z,95.8313
2019-05-12T00:22:38.119Z,95.7275
2019-05-12T00:22:45.729Z,95.8313
2019-05-12T00:22:58.026Z,95.9290
2019-05-12T00:23:19.920Z,96.0327
2019-05-12T00:23:26.686Z,96.1365
2019-05-12T00:23:28.750Z,96.2402
2019-05-12T00:23:38.202Z,96.2402
2019-05-12T00:23:47.639Z,96.2402
2019-05-12T00:23:58.248Z,96.2402
2019-05-12T00:24:07.932Z,96.1365
2019-05-12T00:24:18.613Z,96.1365
2019-05-12T00:24:28.019Z,96.1365
2019-05-12T00:24:35.665Z,96.1365
2019-05-12T00:24:47.752Z,96.0327
2019-05-12T00:24:55.464Z,95.9290
2019-05-12T00:25:08.827Z,95.9290
2019-05-12T00:25:18.163Z,95.9290
2019-05-12T00:25:28.128Z,95.9290
2019-05-12T00:25:35.924Z,96.0327
2019-05-12T00:25:47.665Z,96.1365
2019-05-12T00:25:55.605Z,96.1365
2019-05-12T00:26:07.832Z,96.2402
2019-05-12T00:26:15.501Z,96.2402
2019-05-12T00:26:28.297Z,96.3440
2019-05-12T00:26:38.173Z,96.3440
2019-05-12T00:26:47.811Z,96.4478
2019-05-12T00:26:55.395Z,96.4478
2019-05-12T00:27:08.511Z,96.5515
2019-05-12T00:27:17.849Z,96.5515
2019-05-12T00:27:25.563Z,96.5515
2019-05-12T00:27:38.815Z,96.5515
2019-05-12T00:27:48.620Z,96.4478
2019-05-12T00:27:58.546Z,96.3440
2019-05-12T00:28:25.675Z,96.3440
2019-05-12T00:28:37.566Z,96.3440
2019-05-12T00:28:48.220Z,96.4478
2019-05-12T00:28:55.838Z,96.4478
2019-05-12T00:29:07.685Z,96.4478
2019-05-12T00:29:15.410Z,96.5515
2019-05-12T00:29:28.635Z,96.5515
2019-05-12T00:29:37.877Z,96.5515
2019-05-12T00:29:45.404Z,96.5515
2019-05-12T00:30:09.661Z,96.6553
2019-05-12T00:30:18.413Z,96.6553
2019-05-12T00:30:27.714Z,96.6553
2019-05-12T00:30:38.889Z,96.7529
2019-05-12T00:30:48.676Z,96.7529
2019-05-12T00:30:58.069Z,96.7529
2019-05-12T00:31:08.239Z,96.7529
2019-05-12T00:31:15.936Z,96.7529
2019-05-12T00:31:27.996Z,96.6553
2019-05-12T00:31:35.662Z,96.5515
2019-05-12T00:31:58.032Z,96.5515
2019-05-12T00:32:05.726Z,96.6553
2019-05-12T00:32:17.813Z,96.6553
2019-05-12T00:32:28.078Z,96.6553
2019-05-12T00:32:38.437Z,96.5515
2019-05-12T00:32:58.029Z,96.1365
2019-05-12T00:33:05.650Z,95.9290
2019-05-12T00:33:28.220Z,95.5200
2019-05-12T00:33:35.892Z,95.4163
2019-05-12T00:33:47.602Z,95.4163
2019-05-12T00:33:55.591Z,95.5200
2019-05-12T00:34:07.855Z,95.4163
2019-05-12T00:34:15.392Z,95.4163
2019-05-12T00:34:28.870Z,95.3125
2019-05-12T00:34:38.497Z,95.3125
2019-05-12T00:34:48.050Z,95.4163
2019-05-12T00:34:55.694Z,95.5200
2019-05-12T00:35:07.660Z,95.5200
2019-05-12T00:35:15.475Z,95.4163
2019-05-12T00:35:28.483Z,95.1050
2019-05-12T00:35:38.102Z,94.7998
2019-05-12T00:35:48.128Z,94.4885
2019-05-12T00:36:07.992Z,94.4885
2019-05-12T00:36:15.652Z,94.5923
2019-05-12T00:36:29.289Z,94.5923
2019-05-12T00:36:37.980Z,94.4885
2019-05-12T00:36:45.611Z,94.4885
2019-05-12T00:36:57.805Z,94.4885
2019-05-12T00:37:05.386Z,94.3848
2019-05-12T00:37:25.899Z,94.2810
2019-05-12T00:37:39.858Z,94.2810
2019-05-12T00:37:45.575Z,94.2810
2019-05-12T00:37:57.760Z,94.2810
2019-05-12T00:38:05.364Z,94.1772
2019-05-12T00:38:27.835Z,94.0796
2019-05-12T00:38:35.459Z,94.0796
2019-05-12T00:38:48.526Z,93.8721
2019-05-12T00:38:58.016Z,93.8721
2019-05-12T00:39:08.547Z,93.7683
2019-05-12T00:39:27.872Z,93.6646
2019-05-12T00:39:35.548Z,93.7683
2019-05-12T00:39:47.921Z,93.7683
2019-05-12T00:39:58.177Z,93.7683
2019-05-12T00:40:05.784Z,93.8721
2019-05-12T00:40:15.452Z,93.8721
2019-05-12T00:40:28.069Z,94.0796
2019-05-12T00:40:35.675Z,94.0796
2019-05-12T00:40:47.695Z,94.1772
2019-05-12T00:40:55.474Z,94.2810
2019-05-12T00:41:08.729Z,94.2810
2019-05-12T00:41:28.262Z,94.1772
2019-05-12T00:41:44.376Z,94.0796
2019-05-12T00:41:48.383Z,94.0796
2019-05-12T00:41:58.488Z,94.0796
2019-05-12T00:42:07.791Z,94.1772
2019-05-12T00:42:15.412Z,94.1772
2019-05-12T00:42:30.455Z,94.2810
2019-05-12T00:42:48.420Z,93.9758
2019-05-12T00:42:57.743Z,93.7683
2019-05-12T00:43:05.441Z,93.5608
2019-05-12T00:43:27.930Z,93.1519
2019-05-12T00:43:38.124Z,92.9443
2019-05-12T00:43:45.760Z,92.8406
2019-05-12T00:43:55.453Z,92.6331
2019-05-12T00:44:08.805Z,92.6331
2019-05-12T00:44:36.111Z,92.6331
2019-05-12T00:44:47.739Z,92.6331
2019-05-12T00:44:55.435Z,92.7368
2019-05-12T00:45:08.095Z,92.5293
2019-05-12T00:45:29.165Z,91.8091
2019-05-12T00:45:38.589Z,91.6016
2019-05-12T00:45:48.250Z,91.4001
2019-05-12T00:45:55.902Z,91.1926
2019-05-12T00:46:07.818Z,91.0889
2019-05-12T00:46:27.939Z,91.2964
2019-05-12T00:46:35.555Z,91.4001
2019-05-12T00:46:48.799Z,91.2964
2019-05-12T00:46:57.714Z,91.2964
2019-05-12T00:47:08.202Z,91.2964
2019-05-12T00:47:25.485Z,91.2964
2019-05-12T00:47:38.926Z,91.0889
2019-05-12T00:47:47.964Z,90.8813
2019-05-12T00:47:57.789Z,90.6738
2019-05-12T00:48:08.738Z,90.4724
2019-05-12T00:48:17.916Z,90.4724
2019-05-12T00:48:25.527Z,90.4724
2019-05-12T00:48:37.645Z,90.6738
2019-05-12T00:48:48.219Z,90.8813
2019-05-12T00:48:58.393Z,90.9851
2019-05-12T00:49:07.968Z,91.0889
2019-05-12T00:49:15.704Z,91.0889
2019-05-12T00:49:26.187Z,90.9851
2019-05-12T00:49:37.921Z,90.9851
2019-05-12T00:49:45.503Z,90.9851
2019-05-12T00:49:58.380Z,91.0889
2019-05-12T00:50:08.120Z,91.0889
2019-05-12T00:50:18.309Z,91.2964
2019-05-12T00:50:26.018Z,91.4001
2019-05-12T00:50:37.986Z,91.4001
2019-05-12T00:50:48.580Z,91.4001
2019-05-12T00:50:58.208Z,91.4001
2019-05-12T00:51:07.796Z,91.4978
2019-05-12T00:51:15.556Z,91.6016
2019-05-12T00:51:25.509Z,91.7053
2019-05-12T00:51:38.376Z,91.4978
2019-05-12T00:51:48.376Z,91.4001
2019-05-12T00:51:56.144Z,91.2964
2019-05-12T00:52:07.958Z,91.2964
2019-05-12T00:52:15.665Z,91.4001
2019-05-12T00:52:28.147Z,91.2964
2019-05-12T00:52:37.968Z,91.2964
2019-05-12T00:52:46.038Z,91.4001
2019-05-12T00:52:58.010Z,91.2964
2019-05-12T00:53:08.605Z,91.1926
2019-05-12T00:53:18.853Z,91.0889
2019-05-12T00:53:42.726Z,91.0889
2019-05-12T00:53:47.903Z,91.1926
2019-05-12T00:53:55.495Z,91.2964
2019-05-12T00:54:09.086Z,91.1926
2019-05-12T00:54:17.825Z,90.7776
2019-05-12T00:54:25.470Z,90.5701
2019-05-12T00:54:37.637Z,90.5701
2019-05-12T00:54:58.565Z,90.8813
2019-05-12T00:55:07.945Z,91.0889
2019-05-12T00:55:18.276Z,90.9851
2019-05-12T00:55:28.785Z,90.9851
2019-05-12T00:55:37.828Z,90.8813
2019-05-12T00:55:47.603Z,90.8813
2019-05-12T00:55:57.952Z,90.9851
2019-05-12T00:56:05.525Z,90.9851
2019-05-12T00:56:17.784Z,91.0889
2019-05-12T00:56:28.498Z,91.1926
2019-05-12T00:56:48.021Z,91.1926
2019-05-12T00:56:58.548Z,91.4001
2019-05-12T00:57:07.793Z,91.4978
2019-05-12T00:57:15.430Z,91.6016
2019-05-12T00:57:28.630Z,91.7053
2019-05-12T00:57:38.298Z,91.7053
2019-05-12T00:57:48.020Z,91.8091
2019-05-12T00:57:58.109Z,91.8091
2019-05-12T00:58:08.261Z,91.6016
2019-05-12T00:58:19.581Z,91.2964
2019-05-12T00:58:27.758Z,90.7776
2019-05-12T00:58:35.672Z,90.6738
2019-05-12T00:58:48.785Z,90.7776
2019-05-12T00:58:58.012Z,90.7776
2019-05-12T00:59:08.117Z,90.6738
2019-05-12T00:59:15.914Z,90.4724
2019-05-12T00:59:27.806Z,90.4724
2019-05-12T00:59:35.491Z,90.3687
2019-05-12T00:59:47.780Z,90.4724
2019-05-12T00:59:58.216Z,90.5701
2019-05-12T01:00:05.814Z,90.8813
2019-05-12T01:00:17.732Z,90.8813
2019-05-12T01:00:25.448Z,90.5701
2019-05-12T01:00:40.462Z,90.3687
2019-05-12T01:00:48.296Z,90.1611
2019-05-12T01:01:08.192Z,89.7461
2019-05-12T01:01:18.405Z,89.7461
2019-05-12T01:01:27.998Z,89.8499
2019-05-12T01:01:37.996Z,89.9536
2019-05-12T01:01:48.042Z,90.1611
2019-05-12T01:01:55.752Z,90.2649
2019-05-12T01:02:07.843Z,90.0574
2019-05-12T01:02:15.596Z,90.0574
2019-05-12T01:02:28.656Z,90.0574
2019-05-12T01:02:37.947Z,89.9536
2019-05-12T01:02:45.631Z,89.9536
2019-05-12T01:02:58.336Z,90.0574
2019-05-12T01:03:08.418Z,90.1611
2019-05-12T01:03:15.878Z,90.1611
2019-05-12T01:03:27.969Z,90.1611
2019-05-12T01:03:38.198Z,90.1611
2019-05-12T01:03:48.377Z,90.1611
2019-05-12T01:03:57.952Z,90.0574
2019-05-12T01:04:08.887Z,89.9536
2019-05-12T01:04:17.565Z,89.9536
2019-05-12T01:04:38.112Z,89.9536
2019-05-12T01:04:48.716Z,89.8499
2019-05-12T01:04:58.108Z,89.8499
2019-05-12T01:05:05.778Z,89.9536
2019-05-12T01:05:17.589Z,89.9536
2019-05-12T01:05:26.347Z,90.1611
2019-05-12T01:05:38.396Z,90.1611
2019-05-12T01:05:48.566Z,90.0574
2019-05-12T01:05:57.738Z,90.0574
2019-05-12T01:06:05.459Z,90.0574
2019-05-12T01:06:17.809Z,90.1611
2019-05-12T01:06:25.477Z,90.2649
2019-05-12T01:06:38.733Z,90.3687
2019-05-12T01:06:48.680Z,90.3687
2019-05-12T01:06:58.273Z,90.2649
2019-05-12T01:07:05.890Z,90.1611
2019-05-12T01:07:18.372Z,90.0574
2019-05-12T01:07:27.739Z,89.8499
2019-05-12T01:07:38.056Z,89.9536
2019-05-12T01:07:48.261Z,90.2649
2019-05-12T01:07:58.340Z,90.2649
2019-05-12T01:08:08.477Z,90.2649
2019-05-12T01:08:18.667Z,90.0574
2019-05-12T01:08:27.875Z,89.8499
2019-05-12T01:08:38.324Z,89.6484
2019-05-12T01:08:45.978Z,89.4409
2019-05-12T01:08:57.784Z,89.4409
2019-05-12T01:09:05.451Z,89.7461
2019-05-12T01:09:17.717Z,90.1611
2019-05-12T01:09:28.161Z,90.3687
2019-05-12T01:09:35.832Z,90.3687
2019-05-12T01:09:45.483Z,90.4724
2019-05-12T01:09:58.074Z,90.4724
2019-05-12T01:10:08.456Z,90.2649
2019-05-12T01:10:17.945Z,90.1611
2019-05-12T01:10:28.586Z,89.8499
2019-05-12T01:10:38.587Z,89.4836
2019-05-12T01:10:47.912Z,89.2761
2019-05-12T01:10:55.544Z,89.2761
2019-05-12T01:11:18.470Z,89.0686
2019-05-12T01:11:37.832Z,88.6169
2019-05-12T01:11:45.541Z,88.8184
2019-05-12T01:11:58.762Z,88.7207
2019-05-12T01:12:07.957Z,88.8184
2019-05-12T01:12:15.548Z,88.8184
2019-05-12T01:12:28.584Z,88.9221
2019-05-12T01:12:38.217Z,88.8184
2019-05-12T01:12:48.510Z,88.7207
2019-05-12T01:12:58.159Z,88.5132
2019-05-12T01:13:08.272Z,88.5132
2019-05-12T01:13:18.419Z,88.4094
2019-05-12T01:13:27.940Z,88.3057
2019-05-12T01:13:35.661Z,88.3057
2019-05-12T01:13:46.009Z,88.4094
2019-05-12T01:13:58.295Z,88.6169
2019-05-12T01:14:08.626Z,88.7207
2019-05-12T01:14:18.712Z,88.8184
2019-05-12T01:14:27.876Z,88.6169
2019-05-12T01:14:35.499Z,88.2019
2019-05-12T01:14:58.025Z,87.8967
2019-05-12T01:15:07.509Z,87.8967
2019-05-12T01:15:17.822Z,87.7930
2019-05-12T01:15:25.439Z,87.7930
2019-05-12T01:15:37.965Z,87.7930
2019-05-12T01:15:45.609Z,87.7930
2019-05-12T01:15:58.675Z,87.8967
2019-05-12T01:16:08.097Z,87.8967
2019-05-12T01:16:15.767Z,87.8967
2019-05-12T01:16:25.477Z,87.9944
2019-05-12T01:16:48.610Z,87.7930
2019-05-12T01:16:57.917Z,87.8967
2019-05-12T01:17:05.513Z,87.9944
2019-05-12T01:17:17.815Z,88.2019
2019-05-12T01:17:25.379Z,88.4094
2019-05-12T01:17:35.851Z,88.6169
2019-05-12T01:17:47.658Z,88.9221
2019-05-12T01:17:55.377Z,88.8184
2019-05-12T01:18:09.462Z,88.9221
2019-05-12T01:18:18.363Z,88.6169
2019-05-12T01:18:27.658Z,88.2446
2019-05-12T01:18:38.512Z,87.7930
2019-05-12T01:18:48.009Z,87.3779
2019-05-12T01:18:55.618Z,87.0667
2019-05-12T01:19:08.066Z,86.8652
2019-05-12T01:19:18.350Z,86.8652
2019-05-12T01:19:28.633Z,86.9690
2019-05-12T01:19:37.471Z,87.1704
2019-05-12T01:19:45.637Z,87.1704
2019-05-12T01:19:58.394Z,87.2742
2019-05-12T01:20:08.672Z,87.3779
2019-05-12T01:20:17.877Z,87.1704
2019-05-12T01:20:28.017Z,86.9690
2019-05-12T01:20:38.744Z,86.6577
2019-05-12T01:20:47.940Z,86.3464
2019-05-12T01:20:55.603Z,86.3464
2019-05-12T01:21:07.862Z,86.0413
2019-05-12T01:21:15.445Z,85.6262
2019-05-12T01:21:37.736Z,85.4187
2019-05-12T01:21:45.439Z,85.4187
2019-05-12T01:21:58.796Z,85.5225
2019-05-12T01:22:18.688Z,84.6985
2019-05-12T01:22:27.744Z,84.4910
2019-05-12T01:22:35.367Z,84.3933
2019-05-12T01:22:50.420Z,84.5947
2019-05-12T01:22:57.915Z,84.8022
2019-05-12T01:23:08.549Z,85.0098
2019-05-12T01:23:28.123Z,85.1135
2019-05-12T01:23:35.764Z,85.0098
2019-05-12T01:23:56.388Z,84.9060
2019-05-12T01:24:02.703Z,84.6985
2019-05-12T01:24:08.805Z,84.3933
2019-05-12T01:24:18.531Z,84.3933
2019-05-12T01:24:28.207Z,84.4910
2019-05-12T01:24:37.896Z,84.5947
2019-05-12T01:24:48.200Z,84.8022
2019-05-12T01:24:57.844Z,85.0098
2019-05-12T01:25:05.606Z,84.6985
2019-05-12T01:25:17.594Z,84.8022
2019-05-12T01:25:25.515Z,84.8022
2019-05-12T01:25:39.612Z,84.4910
2019-05-12T01:25:58.546Z,84.4910
2019-05-12T01:26:08.661Z,84.5947
2019-05-12T01:26:17.858Z,84.4910
2019-05-12T01:26:28.325Z,84.3933
2019-05-12T01:26:38.560Z,84.1858
2019-05-12T01:26:47.648Z,83.9783
2019-05-12T01:26:58.181Z,84.0820
2019-05-12T01:27:05.905Z,83.8745
2019-05-12T01:27:17.968Z,83.9783
2019-05-12T01:27:25.675Z,83.9783
2019-05-12T01:27:37.873Z,84.1858
2019-05-12T01:27:48.244Z,84.1858
2019-05-12T01:27:58.607Z,84.1858
2019-05-12T01:28:07.948Z,84.3933
2019-05-12T01:28:18.377Z,84.4910
2019-05-12T01:28:27.824Z,84.5947
2019-05-12T01:28:35.496Z,84.3933
2019-05-12T01:28:48.799Z,84.2896
2019-05-12T01:28:58.017Z,84.1858
2019-05-12T01:29:05.667Z,84.0820
2019-05-12T01:29:17.788Z,83.8745
2019-05-12T01:29:25.404Z,83.8745
2019-05-12T01:29:38.537Z,84.1858
2019-05-12T01:29:48.083Z,84.2896
2019-05-12T01:29:58.014Z,84.2896
2019-05-12T01:30:05.609Z,84.1858
2019-05-12T01:30:18.108Z,84.1858
2019-05-12T01:30:28.167Z,84.1858
2019-05-12T01:30:36.024Z,84.2896
2019-05-12T01:30:47.896Z,84.4910
2019-05-12T01:30:55.556Z,84.6985
2019-05-12T01:31:08.439Z,84.8022
2019-05-12T01:31:18.052Z,84.8022
2019-05-12T01:31:25.624Z,84.6375
2019-05-12T01:31:40.765Z,84.5337
2019-05-12T01:31:48.626Z,84.5337
2019-05-12T01:31:58.580Z,84.6375
2019-05-12T01:32:07.871Z,84.6375
2019-05-12T01:32:15.598Z,84.6375
2019-05-12T01:32:38.270Z,84.7412
2019-05-12T01:32:45.879Z,84.6375
2019-05-12T01:32:57.456Z,84.4299
2019-05-12T01:33:08.534Z,84.1187
2019-05-12T01:33:18.429Z,84.1187
2019-05-12T01:33:27.770Z,84.2224
2019-05-12T01:33:38.097Z,84.4299
2019-05-12T01:33:48.594Z,84.5337
2019-05-12T01:33:58.443Z,84.5337
2019-05-12T01:34:08.074Z,84.2224
2019-05-12T01:34:15.750Z,84.1187
2019-05-12T01:34:27.603Z,84.1187
2019-05-12T01:34:35.376Z,84.1187
2019-05-12T01:34:48.208Z,84.3262
2019-05-12T01:34:57.782Z,84.3262
2019-05-12T01:35:05.370Z,84.0149
2019-05-12T01:35:28.126Z,83.9111
2019-05-12T01:35:38.425Z,83.8135
2019-05-12T01:35:52.286Z,84.0149
2019-05-12T01:35:58.684Z,83.9111
2019-05-12T01:36:07.945Z,83.9111
2019-05-12T01:36:15.581Z,84.0149
2019-05-12T01:36:28.620Z,84.1187
2019-05-12T01:36:38.102Z,83.9111
2019-05-12T01:36:48.367Z,83.7097
2019-05-12T01:36:55.934Z,83.6060
2019-05-12T01:37:07.880Z,83.5022
2019-05-12T01:37:27.833Z,83.7097
2019-05-12T01:37:35.559Z,83.8135
2019-05-12T01:37:48.431Z,83.8135
2019-05-12T01:38:01.120Z,83.8135
2019-05-12T01:38:08.010Z,83.7097
2019-05-12T01:38:18.075Z,83.7097
2019-05-12T01:38:25.790Z,83.7097
2019-05-12T01:38:37.914Z,83.9111
2019-05-12T01:38:48.152Z,84.0149
2019-05-12T01:38:55.877Z,84.2224
2019-05-12T01:39:07.753Z,84.2224
2019-05-12T01:39:15.720Z,84.1187
2019-05-12T01:39:27.659Z,84.3262
2019-05-12T01:39:38.327Z,84.5337
2019-05-12T01:39:45.860Z,84.7412
2019-05-12T01:39:59.727Z,84.8389
2019-05-12T01:40:08.486Z,84.8389
2019-05-12T01:40:28.237Z,84.2224
2019-05-12T01:40:39.288Z,84.2224
2019-05-12T01:40:47.890Z,84.5337
2019-05-12T01:40:58.210Z,84.6375
2019-05-12T01:41:05.952Z,84.6375
2019-05-12T01:41:25.458Z,84.9854
2019-05-12T01:41:38.948Z,85.4980
2019-05-12T01:41:48.135Z,85.7056
2019-05-12T01:41:58.706Z,85.6018
2019-05-12T01:42:09.010Z,85.6018
2019-05-12T01:42:25.378Z,85.7056
2019-05-12T01:42:38.261Z,85.7056
2019-05-12T01:42:48.338Z,85.7056
2019-05-12T01:42:58.284Z,85.6018
2019-05-12T01:43:08.261Z,85.3943
2019-05-12T01:43:27.798Z,85.2966
2019-05-12T01:43:35.432Z,85.3943
2019-05-12T01:43:48.779Z,85.4980
2019-05-12T01:43:58.370Z,85.7056
2019-05-12T01:44:05.990Z,85.8093
2019-05-12T01:44:28.679Z,86.1206
2019-05-12T01:44:38.200Z,86.0168
2019-05-12T01:44:48.068Z,85.8521
2019-05-12T01:44:55.721Z,85.6445
2019-05-12T01:45:05.388Z,85.5408
2019-05-12T01:45:28.464Z,85.3333
2019-05-12T01:45:37.997Z,85.2966
2019-05-12T01:45:48.114Z,85.3943
2019-05-12T01:45:58.828Z,85.4980
2019-05-12T01:46:08.109Z,85.4980
2019-05-12T01:46:18.018Z,85.0891
2019-05-12T01:46:25.667Z,85.0891
2019-05-12T01:46:38.312Z,85.2966
2019-05-12T01:46:48.246Z,85.3943
2019-05-12T01:46:57.738Z,85.7056
2019-05-12T01:47:05.378Z,85.9131
2019-05-12T01:47:25.956Z,85.8093
2019-05-12T01:47:38.249Z,85.8093
2019-05-12T01:47:48.445Z,85.8093
2019-05-12T01:47:58.740Z,85.4980
2019-05-12T01:48:08.742Z,85.2966
2019-05-12T01:48:28.688Z,84.5703
2019-05-12T01:48:37.763Z,84.2651
2019-05-12T01:48:48.383Z,84.3628
2019-05-12T01:49:01.735Z,84.2651
2019-05-12T01:49:08.251Z,84.1187
2019-05-12T01:49:28.916Z,84.3262
2019-05-12T01:49:38.237Z,84.4299
2019-05-12T01:49:45.805Z,84.5337
2019-05-12T01:49:57.981Z,84.7412
2019-05-12T01:50:05.714Z,84.9426
2019-05-12T01:50:17.642Z,85.0464
2019-05-12T01:50:28.364Z,84.7412
2019-05-12T01:50:38.334Z,84.4299
2019-05-12T01:50:47.604Z,84.4299
2019-05-12T01:50:57.955Z,84.5337
2019-05-12T01:51:05.638Z,84.5337
2019-05-12T01:51:28.336Z,84.0149
2019-05-12T01:51:47.699Z,84.1187
2019-05-12T01:51:58.155Z,84.1187
2019-05-12T01:52:05.838Z,84.2224
2019-05-12T01:52:28.430Z,84.4299
2019-05-12T01:52:38.395Z,84.6375
2019-05-12T01:52:47.826Z,84.6375
2019-05-12T01:52:55.474Z,84.3262
2019-05-12T01:53:08.699Z,84.3262
2019-05-12T01:53:15.362Z,84.3262
2019-05-12T01:53:28.700Z,84.4299
2019-05-12T01:53:37.877Z,84.6375
2019-05-12T01:53:48.278Z,84.8389
2019-05-12T01:54:08.598Z,85.0464
2019-05-12T01:54:13.883Z,85.0891
2019-05-12T01:54:27.790Z,84.8816
2019-05-12T01:54:35.426Z,84.9854
2019-05-12T01:54:48.311Z,84.8816
2019-05-12T01:54:56.006Z,84.9854
2019-05-12T01:55:07.991Z,85.0891
2019-05-12T01:55:28.121Z,85.1929
2019-05-12T01:55:38.309Z,84.9854
2019-05-12T01:55:48.345Z,84.7778
2019-05-12T01:55:58.389Z,84.6741
2019-05-12T01:56:07.874Z,84.7778
2019-05-12T01:56:15.507Z,84.5703
2019-05-12T01:56:28.802Z,84.3628
2019-05-12T01:56:38.301Z,84.2651
2019-05-12T01:56:48.132Z,84.2651
2019-05-12T01:56:58.622Z,84.5703
2019-05-12T01:57:08.126Z,84.6741
2019-05-12T01:57:15.764Z,84.4666
2019-05-12T01:57:25.499Z,84.3628
2019-05-12T01:57:38.534Z,84.2651
2019-05-12T01:57:45.504Z,84.1614
2019-05-12T01:57:57.731Z,84.2651
2019-05-12T01:58:05.524Z,84.4666
2019-05-12T01:58:19.062Z,84.4299
2019-05-12T01:58:27.817Z,84.5703
2019-05-12T01:58:35.472Z,84.6741
2019-05-12T01:58:48.290Z,84.8816
2019-05-12T01:58:57.834Z,84.8816
2019-05-12T01:59:05.434Z,84.8816
2019-05-12T01:59:18.502Z,84.6741
2019-05-12T01:59:26.138Z,84.6375
2019-05-12T01:59:38.019Z,84.6375
2019-05-12T01:59:48.268Z,84.7412
2019-05-12T01:59:58.617Z,84.7778
2019-05-12T02:00:08.036Z,84.6741
2019-05-12T02:00:15.699Z,84.3262
2019-05-12T02:00:27.915Z,84.4666
2019-05-12T02:00:38.899Z,84.6375
2019-05-12T02:00:48.228Z,84.6741
2019-05-12T02:00:58.672Z,84.5337
2019-05-12T02:01:08.230Z,84.5703
2019-05-12T02:01:15.862Z,84.4666
2019-05-12T02:01:27.541Z,84.3628
2019-05-12T02:01:35.798Z,84.5337
2019-05-12T02:01:45.446Z,84.6741
2019-05-12T02:01:58.150Z,84.6741
2019-05-12T02:02:05.766Z,84.6741
2019-05-12T02:02:17.705Z,84.5703
2019-05-12T02:02:25.441Z,84.7778
2019-05-12T02:02:38.612Z,85.1929
2019-05-12T02:02:48.043Z,85.1929
2019-05-12T02:02:58.158Z,84.9854
2019-05-12T02:03:08.902Z,84.8816
2019-05-12T02:03:17.856Z,84.9854
2019-05-12T02:03:25.539Z,85.0891
2019-05-12T02:03:37.751Z,85.2966
2019-05-12T02:03:45.360Z,85.2966
2019-05-12T02:03:58.579Z,85.3943
2019-05-12T02:04:11.681Z,85.7056
2019-05-12T02:04:18.104Z,85.7056
2019-05-12T02:04:25.800Z,85.4980
2019-05-12T02:04:40.859Z,85.2966
2019-05-12T02:04:45.529Z,85.1929
2019-05-12T02:04:58.781Z,85.0891
2019-05-12T02:05:08.579Z,85.1929
2019-05-12T02:05:21.818Z,85.0891
2019-05-12T02:05:28.204Z,84.9854
2019-05-12T02:05:37.971Z,84.9854
2019-05-12T02:05:45.683Z,85.0891
2019-05-12T02:05:58.023Z,85.1929
2019-05-12T02:06:08.274Z,85.2966
2019-05-12T02:06:18.448Z,85.3943
2019-05-12T02:06:27.907Z,85.6018
2019-05-12T02:06:40.973Z,85.7056
2019-05-12T02:06:45.422Z,85.7056
2019-05-12T02:06:57.767Z,85.7056
2019-05-12T02:07:08.352Z,85.8093
2019-05-12T02:07:18.541Z,85.8093
2019-05-12T02:07:28.005Z,85.8521
2019-05-12T02:07:35.541Z,85.7483
2019-05-12T02:07:47.958Z,85.6445
2019-05-12T02:07:58.108Z,85.6445
2019-05-12T02:08:06.028Z,85.6445
2019-05-12T02:08:15.981Z,85.6445
2019-05-12T02:08:27.817Z,85.6445
2019-05-12T02:08:38.357Z,85.6445
2019-05-12T02:08:47.755Z,85.5408
2019-05-12T02:08:58.047Z,85.4370
2019-05-12T02:09:07.989Z,85.4370
2019-05-12T02:09:15.613Z,85.6445
2019-05-12T02:09:27.998Z,85.8521
2019-05-12T02:09:35.614Z,85.9497
2019-05-12T02:09:48.076Z,86.1572
2019-05-12T02:09:55.634Z,86.2610